CheckWX is a tool to help pilots better visualize weather data.  It is not intended as a substitute for an official pre-flight weather briefing.

12:21:59 UTC

KBJJ METAR
Wayne County Airport
Wooster, Ohio, USA
Current

26 mins ago

KBJJ 181156Z AUTO 29009KT 10SM OVC010 M04/M05 A2997 RMK AO2 CIG 006V012 SLP161 70001 I6001 T10391050 11022 21044 51018
Observed
Feb-18 @ 11:56 UTC
Wind
  • 290° at 9 KTS
Visibility
10 SM
Flight Rules
MVFR
Cloud Levels
  • Overcast at 1,000' AGL
Temperature
-4°C / 25°F
Dewpoint
-5°C / 23°F
Humidity
93%
Altimeter
29.97" Hg
Pressure
1016.1 hPa
Previous

39 mins ago

KBJJ 181143Z AUTO 30009KT 8SM OVC008 M04/M05 A2996 RMK AO2 CIG 006V012 T10391050
Observed
Feb-18 @ 11:43 UTC
Wind
  • 300° at 9 KTS
Visibility
8 SM
Flight Rules
IFR
Cloud Levels
  • Overcast at 800' AGL
Temperature
-4°C / 25°F
Dewpoint
-5°C / 23°F
Humidity
93%
Altimeter
29.96" Hg
Pressure
1014.52 hPa
Previous

1 hour ago

KBJJ 181115Z AUTO 30009KT 9SM OVC010 M04/M05 A2995 RMK AO2 CIG 005V013 T10391050
Observed
Feb-18 @ 11:15 UTC
Wind
  • 300° at 9 KTS
Visibility
9 SM
Flight Rules
MVFR
Cloud Levels
  • Overcast at 1,000' AGL
Temperature
-4°C / 25°F
Dewpoint
-5°C / 23°F
Humidity
93%
Altimeter
29.95" Hg
Pressure
1014.22 hPa